Time;durP1;ratioP1;P1;durP2;ratioP2;P2;SDS_P1;SDS_P2;PMS_P1;PMS_P2;Temp;Humidity;BMP_temperature;BMP_pressure;BME280_temperature;BME280_humidity;BME280_pressure;Samples;Min_cycle;Max_cycle;Signal;HPM_P1;HPM_P2
2022/02/02 00:00:39;;;;;;;2;4.7;;;;;;;1.4;81.4;96970;;;;
2022/02/02 00:12:16;;;;;;;1.6;3.3;;;;;;;1.4;81.6;96970;;;;
2022/02/02 00:21:44;;;;;;;1.6;3.3;;;;;;;1.3;82.4;96970;;;;
2022/02/02 00:31:43;;;;;;;1.6;3.3;;;;;;;1.3;83.4;96970;;;;
2022/02/02 00:41:39;;;;;;;2.5;4.4;;;;;;;1.2;84;96950;;;;
2022/02/02 00:51:43;;;;;;;2.5;4.4;;;;;;;1.2;84.2;96950;;;;
2022/02/02 01:02:39;;;;;;;2.5;4.4;;;;;;;1.3;84.3;96950;;;;
2022/02/02 01:12:47;;;;;;;1.9;3.4;;;;;;;1.3;84.4;96940;;;;
2022/02/02 01:32:39;;;;;;;1.9;3.4;;;;;;;1.4;84;96930;;;;
2022/02/02 01:43:45;;;;;;;1.8;3;;;;;;;1.5;84;96930;;;;
2022/02/02 01:54:53;;;;;;;1.8;3;;;;;;;1.4;84.1;96940;;;;
2022/02/02 02:04:39;;;;;;;2.4;3.5;;;;;;;1.4;84.5;96930;;;;
2022/02/02 02:15:41;;;;;;;2.4;3.5;;;;;;;1.5;84.8;96930;;;;
2022/02/02 02:25:39;;;;;;;2.4;3.5;;;;;;;1.6;84.8;96930;;;;
2022/02/02 02:37:01;;;;;;;2.7;7.1;;;;;;;1.8;84.7;96930;;;;
2022/02/02 02:56:44;;;;;;;2.7;7.1;;;;;;;2.1;83.7;96930;;;;
2022/02/02 04:08:39;;;;;;;1.3;2.5;;;;;;;2.9;80.9;96950;;;;
2022/02/02 04:51:55;;;;;;;1.7;3.7;;;;;;;3.2;79.7;96980;;;;
2022/02/02 05:12:11;;;;;;;2.6;6.6;;;;;;;3;80.9;97000;;;;
2022/02/02 05:22:09;;;;;;;2.6;6.6;;;;;;;3;81.1;97020;;;;
2022/02/02 05:43:10;;;;;;;2.7;4.6;;;;;;;2.7;83;97030;;;;
2022/02/02 05:52:39;;;;;;;2.7;4.6;;;;;;;2.6;83.3;97040;;;;
2022/02/02 06:02:39;;;;;;;2.7;4.6;;;;;;;2.7;83.4;97030;;;;
2022/02/02 06:13:41;;;;;;;;;;;;;;;;;;;;;
2022/02/02 06:23:39;;;;;;;2.9;6.1;;;;;;;3;82.5;97060;;;;
2022/02/02 06:34:39;;;;;;;3.7;5.7;;;;;;;3;82.5;97070;;;;
2022/02/02 06:45:39;;;;;;;3.7;5.7;;;;;;;3.1;82.5;97070;;;;
2022/02/02 06:55:45;;;;;;;3.7;5.7;;;;;;;3.1;82.1;97080;;;;
2022/02/02 07:05:49;;;;;;;6.9;9.3;;;;;;;3.2;81.9;97100;;;;
2022/02/02 07:15:53;;;;;;;6.9;9.3;;;;;;;3.2;81.6;97110;;;;
2022/02/02 07:36:40;;;;;;;6.3;10.3;;;;;;;3.3;82;97120;;;;
2022/02/02 07:47:39;;;;;;;6.3;10.3;;;;;;;3.4;81.4;97120;;;;
2022/02/02 07:57:39;;;;;;;6.3;10.3;;;;;;;3.5;81.1;97120;;;;
2022/02/02 08:08:41;;;;;;;7.6;12.2;;;;;;;3.6;81.1;97140;;;;
2022/02/02 08:19:40;;;;;;;7.6;12.2;;;;;;;3.6;81;97150;;;;
2022/02/02 08:29:39;;;;;;;7.6;12.2;;;;;;;3.8;80.4;97150;;;;
2022/02/02 08:39:53;;;;;;;6.9;10;;;;;;;3.8;80.8;97150;;;;
2022/02/02 08:50:44;;;;;;;6.9;10;;;;;;;3.8;81;97170;;;;
2022/02/02 09:01:39;;;;;;;6.9;10;;;;;;;3.7;81.1;97180;;;;
2022/02/02 09:22:35;;;;;;;6.8;9.8;;;;;;;3.7;81.3;97180;;;;
2022/02/02 09:31:54;;;;;;;6.8;9.8;;;;;;;3.9;81.8;97190;;;;
2022/02/02 09:41:43;;;;;;;8.6;11.2;;;;;;;3.9;81.1;97200;;;;
2022/02/02 09:52:43;;;;;;;8.6;11.2;;;;;;;4.1;80.5;97190;;;;
2022/02/02 10:02:59;;;;;;;7.6;11.9;;;;;;;4.3;79.8;97200;;;;
2022/02/02 10:13:00;;;;;;;7.6;11.9;;;;;;;4.5;78.9;97220;;;;
2022/02/02 10:23:41;;;;;;;7.6;11.9;;;;;;;4.4;77.9;97230;;;;
2022/02/02 10:33:39;;;;;;;8;11.7;;;;;;;4.4;77.8;97220;;;;
2022/02/02 10:43:41;;;;;;;8;11.7;;;;;;;4.7;77.9;97240;;;;
2022/02/02 10:54:50;;;;;;;8;11.7;;;;;;;4.8;77.4;97240;;;;
2022/02/02 11:14:39;;;;;;;7.9;12.4;;;;;;;5;76.1;97250;;;;
2022/02/02 11:24:39;;;;;;;7.9;12.4;;;;;;;5;75.3;97250;;;;
2022/02/02 11:35:44;;;;;;;8.8;15.4;;;;;;;4.7;76.3;97260;;;;
2022/02/02 11:45:40;;;;;;;8.8;15.4;;;;;;;4.6;77.1;97290;;;;
2022/02/02 11:55:43;;;;;;;8.8;15.4;;;;;;;4.5;77.5;97300;;;;
2022/02/02 12:05:55;;;;;;;7.5;11.3;;;;;;;4.9;76.9;97320;;;;
2022/02/02 12:47:50;;;;;;;8;12.7;;;;;;;5.7;71.8;97320;;;;
2022/02/02 12:58:46;;;;;;;8;12.7;;;;;;;5.2;72.1;97340;;;;
2022/02/02 13:09:39;;;;;;;7.2;16.7;;;;;;;5.3;72.3;97340;;;;
2022/02/02 13:19:42;;;;;;;7.2;16.7;;;;;;;5.1;71.3;97370;;;;
2022/02/02 13:29:45;;;;;;;7.2;16.7;;;;;;;5;74.1;97390;;;;
2022/02/02 13:51:00;;;;;;;4.3;8.9;;;;;;;5.2;73.6;97420;;;;
2022/02/02 14:01:45;;;;;;;8.5;17.1;;;;;;;5.2;73.5;97440;;;;
2022/02/02 14:25:35;;;;;;;8.5;17.1;;;;;;;5;73.4;97450;;;;
2022/02/02 14:32:39;;;;;;;7.9;12.2;;;;;;;4.5;76.8;97480;;;;
2022/02/02 14:42:42;;;;;;;7.9;12.2;;;;;;;4.2;78.2;97510;;;;
2022/02/02 14:52:51;;;;;;;7.9;12.2;;;;;;;3.7;78.9;97550;;;;
2022/02/02 15:25:22;;;;;;;4.8;10.6;;;;;;;2.8;81.2;97620;;;;
2022/02/02 15:35:41;;;;;;;7.7;13.5;;;;;;;2.7;81.8;97650;;;;
2022/02/02 15:58:09;;;;;;;;;;;;;;;2.8;81.7;97700;;;;
2022/02/02 16:07:39;;;;;;;9.2;13.2;;;;;;;2.9;82;97710;;;;
2022/02/02 16:18:44;;;;;;;9.2;13.2;;;;;;;3;82.3;97730;;;;
2022/02/02 16:39:50;;;;;;;12.4;16.2;;;;;;;3;82.8;97760;;;;
2022/02/02 16:49:39;;;;;;;12.4;16.2;;;;;;;2.9;83.1;97770;;;;
2022/02/02 17:31:48;;;;;;;37;48.5;;;;;;;1.9;82.4;97900;;;;
2022/02/02 17:43:34;;;;;;;37;48.5;;;;;;;1.7;82.7;97920;;;;
2022/02/02 18:16:19;;;;;;;18.6;24;;;;;;;1.5;83.7;98010;;;;
2022/02/02 18:26:44;;;;;;;18.6;24;;;;;;;1.6;84.2;98030;;;;
2022/02/02 18:36:47;;;;;;;12.7;14.8;;;;;;;1.6;83;98050;;;;
2022/02/02 18:47:55;;;;;;;12.7;14.8;;;;;;;1.7;82.9;98080;;;;
2022/02/02 18:58:49;;;;;;;12.7;14.8;;;;;;;1.6;83.8;98110;;;;
2022/02/02 19:52:15;;;;;;;11.3;15.8;;;;;;;1.7;82.7;98200;;;;
2022/02/02 20:01:51;;;;;;;16.4;21.3;;;;;;;1.7;82.7;98240;;;;
2022/02/02 20:11:42;;;;;;;16.4;21.3;;;;;;;1.7;81.8;98270;;;;
2022/02/02 20:21:47;;;;;;;16.4;21.3;;;;;;;1.7;81.7;98300;;;;
2022/02/02 20:31:39;;;;;;;15.2;21.5;;;;;;;1.7;81.7;98320;;;;
2022/02/02 20:42:47;;;;;;;15.2;21.5;;;;;;;1.7;81.9;98340;;;;
2022/02/02 21:03:15;;;;;;;16;17.8;;;;;;;1.7;81.8;98380;;;;
2022/02/02 21:13:43;;;;;;;16;17.8;;;;;;;1.7;81.6;98390;;;;
2022/02/02 21:24:05;;;;;;;16;17.8;;;;;;;1.7;81.5;98420;;;;
2022/02/02 21:34:39;;;;;;;20;25.1;;;;;;;1.7;81.5;98430;;;;
2022/02/02 21:45:39;;;;;;;20;25.1;;;;;;;1.7;81.7;98450;;;;
2022/02/02 21:55:39;;;;;;;20;25.1;;;;;;;1.7;81.7;98470;;;;
2022/02/02 22:06:39;;;;;;;29.9;35.2;;;;;;;1.7;81.4;98480;;;;
2022/02/02 22:16:40;;;;;;;29.9;35.2;;;;;;;1.7;81.1;98500;;;;
2022/02/02 22:27:39;;;;;;;29.9;35.2;;;;;;;1.7;81;98530;;;;
2022/02/02 22:37:39;;;;;;;19.8;22.1;;;;;;;1.7;81.1;98550;;;;
2022/02/02 22:47:43;;;;;;;19.8;22.1;;;;;;;1.7;81.2;98570;;;;
2022/02/02 22:57:39;;;;;;;19.8;22.1;;;;;;;1.7;81.5;98570;;;;
2022/02/02 23:07:39;;;;;;;21.5;24.9;;;;;;;1.7;81.1;98590;;;;
2022/02/02 23:18:40;;;;;;;21.5;24.9;;;;;;;1.7;81.2;98600;;;;
2022/02/02 23:28:43;;;;;;;21.5;24.9;;;;;;;1.6;80.9;98610;;;;
2022/02/02 23:38:39;;;;;;;19.7;23.8;;;;;;;1.6;81;98610;;;;
2022/02/02 23:48:39;;;;;;;19.7;23.8;;;;;;;1.6;81.2;98630;;;;
2022/02/02 23:58:43;;;;;;;19.7;23.8;;;;;;;1.6;81.1;98630;;;;
